Flight Track Log - Related Links

Times and Time Zones

All times are in EDT time to prevent confusion due to time zone crossing. See the JZA7927 flight status page for this flight to view local times or setup timezone preferences in your user account.

Time Position Orientation Groundspeed Altitude Reporting Facility
EDT Latitude Longitude Course Direction KTS MPH feet Rate Location/Type
Sun 06:14:24 AM 39.2167 -76.7000 322° Northwest 117 135 2,300  Level Potomac TRACON
Sun 06:15:24 AM 39.2500 -76.7167 339° North 110 127 3,700 947 Climbing Potomac TRACON
Sun 06:16:18 AM 39.2500 -76.7500 270° West 154 177 4,100 789 Climbing Potomac TRACON
Sun 06:17:00 AM 39.2000 -77.0525 270° West  Level FlightAware Approximate
Sun 06:17:18 AM 39.2667 -76.8167 288° West 162 186 5,200  Level Potomac TRACON
Sun 06:18:00 AM 39.2000 -77.1312 270° West  Level FlightAware Approximate
Sun 06:18:18 AM 39.2833 -76.8667 293° West 165 190 6,100  Level Potomac TRACON
Sun 06:19:00 AM 39.2418 -77.1751 322° Northwest  Level FlightAware Approximate
Sun 06:20:41 AM 39.3033 -77.0050 281° West 166 191 8,300  Level Washington Center
Sun 06:21:42 AM 39.3214 -77.0617 292° West 166 191 9,200 900 Climbing Washington Center
Sun 06:22:41 AM 39.3583 -77.1000 321° Northwest 166 191 10,100 950 Climbing Washington Center
Sun 06:23:42 AM 39.3933 -77.1411 318° Northwest 166 191 11,100 850 Climbing Washington Center
Sun 06:24:41 AM 39.4261 -77.1819 316° Northwest 166 191 11,800 706 Climbing Washington Center
Sun 06:25:41 AM 39.4589 -77.2258 314° West 166 191 12,500 688 Climbing Washington Center
Sun 06:27:53 AM 39.5336 -77.3178 317° Northwest 172 198 14,000 625 Climbing New York Center
Sun 06:28:53 AM 39.5686 -77.3617 316° Northwest 167 192 14,500 600 Climbing New York Center
Sun 06:29:53 AM 39.6081 -77.4003 323° Northwest 167 192 15,200 650 Climbing New York Center
Sun 06:30:53 AM 39.6531 -77.4153 346° North 167 192 15,800 400 Climbing New York Center
Sun 06:31:53 AM 39.7064 -77.4339 345° North 175 201 16,000 100 Climbing New York Center
Sun 06:32:53 AM 39.7636 -77.4528 346° North 189 217 16,000  Level New York Center
Sun 06:33:53 AM 39.8208 -77.4744 344° North 214 246 16,000  Level New York Center
Sun 06:34:53 AM 39.8781 -77.4933 346° North 219 252 16,000  Level New York Center
Sun 06:35:53 AM 39.9394 -77.5156 344° North 219 252 16,000  Level New York Center
Sun 06:36:53 AM 39.9967 -77.5375 344° North 219 252 16,000  Level New York Center
Sun 06:37:53 AM 40.0558 -77.5567 346° North 219 252 16,000  Level New York Center
Sun 06:38:53 AM 40.1131 -77.5786 344° North 219 252 16,000  Level New York Center
Sun 06:39:53 AM 40.1722 -77.6006 344° North 219 252 16,000  Level New York Center
Sun 06:40:53 AM 40.2314 -77.6228 344° North 219 252 16,000 39 Level New York Center
Sun 06:42:27 AM 40.3172 -77.6558 344° North 224 258 16,100 39 Climbing Cleveland Center
Sun 06:43:27 AM 40.3761 -77.6778 344° North 224 258 16,100  Level Cleveland Center
Sun 06:44:27 AM 40.4331 -77.6969 346° North 224 258 16,100  Level Cleveland Center
Sun 06:45:27 AM 40.4983 -77.7217 344° North 219 252 16,100  Level Cleveland Center
Sun 06:46:27 AM 40.5572 -77.7436 344° North 219 252 16,100  Level Cleveland Center
Sun 06:47:27 AM 40.6139 -77.7631 345° North 219 252 16,100  Level Cleveland Center
Sun 06:48:27 AM 40.6708 -77.7853 344° North 219 252 16,100  Level Cleveland Center
Sun 06:49:27 AM 40.7297 -77.8047 346° North 219 252 16,100  Level Cleveland Center
Sun 06:50:27 AM 40.7867 -77.8297 342° North 219 252 16,100  Level Cleveland Center
Sun 06:51:27 AM 40.8475 -77.8519 345° North 214 246 16,100  Level Cleveland Center
Sun 06:52:27 AM 40.9044 -77.8714 346° North 214 246 16,100  Level Cleveland Center
Sun 06:53:27 AM 40.9611 -77.8939 343° North 214 246 16,100 -50 Level Cleveland Center
Sun 06:54:27 AM 41.0222 -77.9161 345° North 214 246 16,000 -50 Descending Cleveland Center
Sun 06:55:27 AM 41.0811 -77.9386 344° North 214 246 16,000  Level Cleveland Center
Sun 06:56:27 AM 41.1397 -77.9583 346° North 214 246 16,000  Level Cleveland Center
Sun 06:57:27 AM 41.1967 -77.9808 343° North 214 246 16,000  Level Cleveland Center
Sun 06:58:27 AM 41.2556 -78.0033 344° North 214 246 16,000  Level Cleveland Center
Sun 06:59:27 AM 41.3164 -78.0231 346° North 214 246 16,000  Level Cleveland Center
Sun 07:00:27 AM 41.3711 -78.0458 343° North 219 252 16,000  Level Cleveland Center
Sun 07:01:27 AM 41.4300 -78.0683 344° North 219 252 16,000  Level Cleveland Center
Sun 07:02:27 AM 41.4911 -78.0911 344° North 224 258 16,000  Level Cleveland Center
Sun 07:03:27 AM 41.5539 -78.1136 345° North 224 258 16,000  Level Cleveland Center
Sun 07:04:27 AM 41.6128 -78.1364 344° North 224 258 16,000  Level Cleveland Center
Sun 07:05:27 AM 41.6739 -78.1589 345° North 224 258 16,000  Level Cleveland Center
Sun 07:06:27 AM 41.7347 -78.1844 343° North 224 258 16,000  Level Cleveland Center
Sun 07:07:27 AM 41.7978 -78.2044 347° North 224 258 16,000  Level Cleveland Center
Sun 07:08:27 AM 41.8608 -78.2300 343° North 224 258 16,000  Level Cleveland Center
Sun 07:09:27 AM 41.9158 -78.2672 333° Northwest 224 258 16,000 50 Level Cleveland Center
Sun 07:10:27 AM 41.9686 -78.3069 331° Northwest 219 252 16,100  Climbing Cleveland Center
Sun 07:11:27 AM 42.0258 -78.3525 329° Northwest 225 259 16,000 -50 Descending Cleveland Center
Sun 07:12:27 AM 42.0789 -78.3956 329° Northwest 230 265 16,000  Level Cleveland Center
Sun 07:13:27 AM 42.1339 -78.4356 332° Northwest 230 265 16,000  Level Cleveland Center
Sun 07:14:27 AM 42.1950 -78.4811 331° Northwest 235 270 16,000  Level Cleveland Center
Sun 07:15:27 AM 42.2500 -78.5242 330° Northwest 230 265 16,000  Level Cleveland Center
Sun 07:16:27 AM 42.3050 -78.5675 330° Northwest 230 265 16,000  Level Cleveland Center
Sun 07:17:27 AM 42.3578 -78.6106 329° Northwest 230 265 16,000  Level Cleveland Center
Sun 07:18:27 AM 42.4128 -78.6511 331° Northwest 230 265 16,000  Level Cleveland Center
Sun 07:19:27 AM 42.4656 -78.6917 330° Northwest 230 265 16,000  Level Cleveland Center
Sun 07:20:27 AM 42.5183 -78.7325 330° Northwest 230 265 16,000  Level Cleveland Center
Sun 07:21:27 AM 42.5753 -78.7758 331° Northwest 230 265 16,000  Level Cleveland Center
Sun 07:22:27 AM 42.6258 -78.8167 329° Northwest 230 265 16,000  Level Cleveland Center
Sun 07:23:27 AM 42.6786 -78.8578 330° Northwest 225 259 16,000  Level Cleveland Center
Sun 07:24:27 AM 42.7314 -78.8986 330° Northwest 225 259 16,000 -100 Level Cleveland Center
Sun 07:25:27 AM 42.7842 -78.9397 330° Northwest 225 259 15,800 -300 Descending Cleveland Center
Sun 07:26:27 AM 42.8325 -78.9781 330° Northwest 225 259 15,400 -450 Descending Cleveland Center
Sun 07:27:27 AM 42.8894 -79.0219 331° Northwest 225 259 14,900 -533 Descending Cleveland Center
Sun 07:27:57 AM 42.9167 -79.0167 North 240 276 14,600 -533 Descending Toronto Center
Sun 07:28:57 AM 42.9667 -79.0833 316° Northwest 230 265 14,100 -500 Descending Toronto Center
Sun 07:29:57 AM 43.0167 -79.1167 334° Northwest 230 265 13,600 -500 Descending Toronto Center
Sun 07:30:57 AM 43.0833 -79.1500 340° North 230 265 13,100 -550 Descending Toronto Center
Sun 07:31:57 AM 43.1333 -79.2000 324° Northwest 230 265 12,500 -600 Descending Toronto Center
Sun 07:32:57 AM 43.1833 -79.2500 324° Northwest 240 276 11,900 -700 Descending Toronto Center
Sun 07:33:57 AM 43.2500 -79.2833 340° North 240 276 11,100 -750 Descending Toronto Center
Sun 07:34:57 AM 43.3000 -79.3333 324° Northwest 240 276 10,400 -850 Descending Toronto Center
Sun 07:35:57 AM 43.3667 -79.3500 350° North 240 276 9,400 -950 Descending Toronto Center
Sun 07:36:57 AM 43.4333 -79.4000 331° Northwest 240 276 8,500 -750 Descending Toronto Center
Sun 07:37:57 AM 43.5000 -79.4333 340° North 230 265 7,900 -650 Descending Toronto Center
Sun 07:38:57 AM 43.5167 -79.5167 285° West 240 276 7,200 -1,300 Descending Toronto Center
Sun 07:39:57 AM 43.5167 -79.6167 270° West 250 288 5,300 -2,000 Descending Toronto Center
Sun 07:40:57 AM 43.5333 -79.7000 285° West 240 276 3,200 -1,150 Descending Toronto Center
Sun 07:41:57 AM 43.5667 -79.7500 313° West 180 207 3,000 -400 Descending Toronto Center
Sun 07:42:57 AM 43.6000 -79.7333 20° North 170 196 2,400 -600 Descending Toronto Center

Login

Don't have an account? Register now (free) for customized features, flight alerts, and more!